Arlington Center, Vermont
Current Conditions -  °F | °C
As of 7:54 AM on Tuesday 21 Oct 2014 (Local Time) from KDDH Reporting Station
Overcast Overcast  
Wind Chill:   Ceiling: 5500
Heat Index:   Visibility: 10mi
Dew Point:   Wind: 0mph
Humidity: 83%   Direction: NA
Pressure: 29.92"   Gusts: NA
Location:  43.1041°N, 73.154°W
Report Text: KDDH 211154Z AUTO 00000KT 10SM BKN055 OVC075 09/06 A2992 RMK AO2 RAE06 SLP133 P0000 60000 T00890061 10111 20083 53005
Loading
Personal Weather Stations






























Interactive Weather Map
Tropical Storm Tracking
New forecast layout! Learn more

10-Day Weather Forecast

Advertisements
Track Severe Weather on mobile